sensor_id;sensor_type;location;lat;lon;timestamp;temperature;humidity
68801;SHT31;55784;50.734;7.086;2023-10-13T00:02:06;17.32;97.19
68801;SHT31;55784;50.734;7.086;2023-10-13T00:04:33;17.29;97.42
68801;SHT31;55784;50.734;7.086;2023-10-13T00:07:01;17.27;97.44
68801;SHT31;55784;50.734;7.086;2023-10-13T00:09:27;17.24;97.47
68801;SHT31;55784;50.734;7.086;2023-10-13T00:12:03;17.26;97.45
68801;SHT31;55784;50.734;7.086;2023-10-13T00:14:29;17.26;97.55
68801;SHT31;55784;50.734;7.086;2023-10-13T00:17:03;17.26;97.59
68801;SHT31;55784;50.734;7.086;2023-10-13T00:19:30;17.23;97.59
68801;SHT31;55784;50.734;7.086;2023-10-13T00:22:17;17.23;97.65
68801;SHT31;55784;50.734;7.086;2023-10-13T00:24:45;17.26;97.56
68801;SHT31;55784;50.734;7.086;2023-10-13T00:27:16;17.22;97.55
68801;SHT31;55784;50.734;7.086;2023-10-13T00:30:03;17.26;97.46
68801;SHT31;55784;50.734;7.086;2023-10-13T00:32:50;17.23;97.50
68801;SHT31;55784;50.734;7.086;2023-10-13T00:35:29;17.23;97.59
68801;SHT31;55784;50.734;7.086;2023-10-13T00:38:01;17.23;97.58
68801;SHT31;55784;50.734;7.086;2023-10-13T00:40:30;17.20;97.57
68801;SHT31;55784;50.734;7.086;2023-10-13T00:42:56;17.20;97.63
68801;SHT31;55784;50.734;7.086;2023-10-13T00:46:01;17.19;97.60
68801;SHT31;55784;50.734;7.086;2023-10-13T00:48:38;17.19;97.63
68801;SHT31;55784;50.734;7.086;2023-10-13T00:51:09;17.19;97.58
68801;SHT31;55784;50.734;7.086;2023-10-13T00:53:59;17.19;97.56
68801;SHT31;55784;50.734;7.086;2023-10-13T00:56:28;17.20;97.56
68801;SHT31;55784;50.734;7.086;2023-10-13T00:58:54;17.19;97.52
68801;SHT31;55784;50.734;7.086;2023-10-13T01:01:22;17.23;97.49
68801;SHT31;55784;50.734;7.086;2023-10-13T01:03:54;17.19;97.56
68801;SHT31;55784;50.734;7.086;2023-10-13T01:06:28;17.19;97.64
68801;SHT31;55784;50.734;7.086;2023-10-13T01:09:09;17.20;97.62
68801;SHT31;55784;50.734;7.086;2023-10-13T01:11:45;17.19;97.54
68801;SHT31;55784;50.734;7.086;2023-10-13T01:14:12;17.18;97.55
68801;SHT31;55784;50.734;7.086;2023-10-13T01:16:40;17.18;97.58
68801;SHT31;55784;50.734;7.086;2023-10-13T01:19:10;17.20;97.63
68801;SHT31;55784;50.734;7.086;2023-10-13T01:21:37;17.20;97.57
68801;SHT31;55784;50.734;7.086;2023-10-13T01:24:06;17.23;97.54
68801;SHT31;55784;50.734;7.086;2023-10-13T01:26:33;17.20;97.52
68801;SHT31;55784;50.734;7.086;2023-10-13T01:29:03;17.24;97.54
68801;SHT31;55784;50.734;7.086;2023-10-13T01:31:37;17.22;97.52
68801;SHT31;55784;50.734;7.086;2023-10-13T01:34:02;17.27;97.48
68801;SHT31;55784;50.734;7.086;2023-10-13T01:36:28;17.22;97.47
68801;SHT31;55784;50.734;7.086;2023-10-13T01:38:57;17.23;97.45
68801;SHT31;55784;50.734;7.086;2023-10-13T01:41:26;17.22;97.51
68801;SHT31;55784;50.734;7.086;2023-10-13T01:43:51;17.22;97.51
68801;SHT31;55784;50.734;7.086;2023-10-13T01:46:17;17.26;97.52
68801;SHT31;55784;50.734;7.086;2023-10-13T01:48:44;17.27;97.49
68801;SHT31;55784;50.734;7.086;2023-10-13T01:51:11;17.23;97.50
68801;SHT31;55784;50.734;7.086;2023-10-13T01:53:37;17.24;97.59
68801;SHT31;55784;50.734;7.086;2023-10-13T01:56:04;17.23;97.64
68801;SHT31;55784;50.734;7.086;2023-10-13T01:58:38;17.24;97.59
68801;SHT31;55784;50.734;7.086;2023-10-13T02:01:10;17.26;97.65
68801;SHT31;55784;50.734;7.086;2023-10-13T02:03:36;17.26;97.74
68801;SHT31;55784;50.734;7.086;2023-10-13T02:06:07;17.27;97.72
68801;SHT31;55784;50.734;7.086;2023-10-13T02:08:35;17.32;97.65
68801;SHT31;55784;50.734;7.086;2023-10-13T02:11:05;17.27;97.83
68801;SHT31;55784;50.734;7.086;2023-10-13T02:13:32;17.26;97.75
68801;SHT31;55784;50.734;7.086;2023-10-13T02:15:58;17.23;97.81
68801;SHT31;55784;50.734;7.086;2023-10-13T02:18:28;17.22;97.95
68801;SHT31;55784;50.734;7.086;2023-10-13T02:21:03;17.20;97.97
68801;SHT31;55784;50.734;7.086;2023-10-13T02:23:38;17.13;98.05
68801;SHT31;55784;50.734;7.086;2023-10-13T02:26:08;17.08;98.42
68801;SHT31;55784;50.734;7.086;2023-10-13T02:28:41;17.05;98.57
68801;SHT31;55784;50.734;7.086;2023-10-13T02:31:09;17.01;98.83
68801;SHT31;55784;50.734;7.086;2023-10-13T02:33:36;17.03;98.76
68801;SHT31;55784;50.734;7.086;2023-10-13T02:36:10;17.01;98.85
68801;SHT31;55784;50.734;7.086;2023-10-13T02:38:37;17.06;98.81
68801;SHT31;55784;50.734;7.086;2023-10-13T02:41:13;17.08;98.83
68801;SHT31;55784;50.734;7.086;2023-10-13T02:43:44;17.09;98.78
68801;SHT31;55784;50.734;7.086;2023-10-13T02:46:10;17.16;98.63
68801;SHT31;55784;50.734;7.086;2023-10-13T02:48:35;17.18;98.62
68801;SHT31;55784;50.734;7.086;2023-10-13T02:51:08;17.22;98.59
68801;SHT31;55784;50.734;7.086;2023-10-13T02:53:44;17.20;98.54
68801;SHT31;55784;50.734;7.086;2023-10-13T02:56:14;17.22;98.47
68801;SHT31;55784;50.734;7.086;2023-10-13T02:58:49;17.22;98.45
68801;SHT31;55784;50.734;7.086;2023-10-13T03:01:36;17.23;98.47
68801;SHT31;55784;50.734;7.086;2023-10-13T03:04:03;17.22;98.57
68801;SHT31;55784;50.734;7.086;2023-10-13T03:06:29;17.26;98.59
68801;SHT31;55784;50.734;7.086;2023-10-13T03:09:17;17.32;98.49
68801;SHT31;55784;50.734;7.086;2023-10-13T03:11:48;17.32;98.46
68801;SHT31;55784;50.734;7.086;2023-10-13T03:14:18;17.36;98.44
68801;SHT31;55784;50.734;7.086;2023-10-13T03:17:00;17.36;98.42
68801;SHT31;55784;50.734;7.086;2023-10-13T03:19:32;17.39;98.43
68801;SHT31;55784;50.734;7.086;2023-10-13T03:22:03;17.36;98.49
68801;SHT31;55784;50.734;7.086;2023-10-13T03:24:38;17.40;98.42
68801;SHT31;55784;50.734;7.086;2023-10-13T03:27:10;17.44;98.45
68801;SHT31;55784;50.734;7.086;2023-10-13T03:29:37;17.47;98.37
68801;SHT31;55784;50.734;7.086;2023-10-13T03:32:08;17.47;98.31
68801;SHT31;55784;50.734;7.086;2023-10-13T03:34:39;17.49;98.21
68801;SHT31;55784;50.734;7.086;2023-10-13T03:37:17;17.49;98.29
68801;SHT31;55784;50.734;7.086;2023-10-13T03:39:45;17.51;98.25
68801;SHT31;55784;50.734;7.086;2023-10-13T03:42:11;17.51;98.26
68801;SHT31;55784;50.734;7.086;2023-10-13T03:44:54;17.50;98.31
68801;SHT31;55784;50.734;7.086;2023-10-13T03:47:20;17.51;98.29
68801;SHT31;55784;50.734;7.086;2023-10-13T03:49:53;17.51;98.37
68801;SHT31;55784;50.734;7.086;2023-10-13T03:52:39;17.55;98.34
68801;SHT31;55784;50.734;7.086;2023-10-13T03:55:05;17.54;98.33
68801;SHT31;55784;50.734;7.086;2023-10-13T03:57:31;17.55;98.43
68801;SHT31;55784;50.734;7.086;2023-10-13T04:00:03;17.51;98.49
68801;SHT31;55784;50.734;7.086;2023-10-13T04:02:33;17.55;98.49
68801;SHT31;55784;50.734;7.086;2023-10-13T04:04:59;17.59;98.47
68801;SHT31;55784;50.734;7.086;2023-10-13T04:07:32;17.60;98.58
68801;SHT31;55784;50.734;7.086;2023-10-13T04:09:58;17.60;98.52
68801;SHT31;55784;50.734;7.086;2023-10-13T04:12:41;17.62;98.47
68801;SHT31;55784;50.734;7.086;2023-10-13T04:15:25;17.64;98.35
68801;SHT31;55784;50.734;7.086;2023-10-13T04:18:02;17.63;98.38
68801;SHT31;55784;50.734;7.086;2023-10-13T04:20:39;17.63;98.42
68801;SHT31;55784;50.734;7.086;2023-10-13T04:23:04;17.62;98.52
68801;SHT31;55784;50.734;7.086;2023-10-13T04:25:51;17.60;98.56
68801;SHT31;55784;50.734;7.086;2023-10-13T04:28:29;17.63;98.61
68801;SHT31;55784;50.734;7.086;2023-10-13T04:31:03;17.63;98.59
68801;SHT31;55784;50.734;7.086;2023-10-13T04:33:39;17.63;98.71
68801;SHT31;55784;50.734;7.086;2023-10-13T04:36:18;17.63;98.70
68801;SHT31;55784;50.734;7.086;2023-10-13T04:38:55;17.66;98.69
68801;SHT31;55784;50.734;7.086;2023-10-13T04:41:27;17.66;98.65
68801;SHT31;55784;50.734;7.086;2023-10-13T04:44:10;17.69;98.66
68801;SHT31;55784;50.734;7.086;2023-10-13T04:46:51;17.67;98.71
68801;SHT31;55784;50.734;7.086;2023-10-13T04:49:22;17.70;98.66
68801;SHT31;55784;50.734;7.086;2023-10-13T04:52:01;17.73;98.62
68801;SHT31;55784;50.734;7.086;2023-10-13T04:54:33;17.77;98.64
68801;SHT31;55784;50.734;7.086;2023-10-13T04:57:00;17.77;98.64
68801;SHT31;55784;50.734;7.086;2023-10-13T04:59:44;17.77;98.61
68801;SHT31;55784;50.734;7.086;2023-10-13T05:02:28;17.83;98.53
68801;SHT31;55784;50.734;7.086;2023-10-13T05:05:15;17.85;98.40
68801;SHT31;55784;50.734;7.086;2023-10-13T05:07:43;17.81;98.44
68801;SHT31;55784;50.734;7.086;2023-10-13T05:10:28;17.81;98.41
68801;SHT31;55784;50.734;7.086;2023-10-13T05:13:12;17.80;98.56
68801;SHT31;55784;50.734;7.086;2023-10-13T05:15:56;17.83;98.67
68801;SHT31;55784;50.734;7.086;2023-10-13T05:18:40;17.80;98.66
68801;SHT31;55784;50.734;7.086;2023-10-13T05:21:24;17.75;98.77
68801;SHT31;55784;50.734;7.086;2023-10-13T05:24:08;17.75;98.76
68801;SHT31;55784;50.734;7.086;2023-10-13T05:26:53;17.78;98.74
68801;SHT31;55784;50.734;7.086;2023-10-13T05:29:42;17.77;98.76
68801;SHT31;55784;50.734;7.086;2023-10-13T05:32:26;17.77;98.78
68801;SHT31;55784;50.734;7.086;2023-10-13T05:35:10;17.77;98.83
68801;SHT31;55784;50.734;7.086;2023-10-13T05:37:54;17.75;98.93
68801;SHT31;55784;50.734;7.086;2023-10-13T05:40:38;17.78;98.97
68801;SHT31;55784;50.734;7.086;2023-10-13T05:43:22;17.80;98.95
68801;SHT31;55784;50.734;7.086;2023-10-13T05:46:06;17.84;98.89
68801;SHT31;55784;50.734;7.086;2023-10-13T05:48:50;17.85;98.84
68801;SHT31;55784;50.734;7.086;2023-10-13T05:51:28;17.90;98.66
68801;SHT31;55784;50.734;7.086;2023-10-13T05:54:17;17.90;98.68
68801;SHT31;55784;50.734;7.086;2023-10-13T05:59:32;17.93;98.66
68801;SHT31;55784;50.734;7.086;2023-10-13T06:02:18;17.98;98.61
68801;SHT31;55784;50.734;7.086;2023-10-13T06:05:07;18.02;98.54
68801;SHT31;55784;50.734;7.086;2023-10-13T06:07:52;18.05;98.46
68801;SHT31;55784;50.734;7.086;2023-10-13T06:10:36;18.08;98.30
68801;SHT31;55784;50.734;7.086;2023-10-13T06:13:21;18.15;98.17
68801;SHT31;55784;50.734;7.086;2023-10-13T06:16:07;18.19;97.89
68801;SHT31;55784;50.734;7.086;2023-10-13T06:18:51;18.24;97.86
68801;SHT31;55784;50.734;7.086;2023-10-13T06:21:35;18.29;97.69
68801;SHT31;55784;50.734;7.086;2023-10-13T06:24:19;18.32;97.47
68801;SHT31;55784;50.734;7.086;2023-10-13T06:27:02;18.41;96.96
68801;SHT31;55784;50.734;7.086;2023-10-13T06:29:46;18.45;96.75
68801;SHT31;55784;50.734;7.086;2023-10-13T06:32:12;18.52;96.60
68801;SHT31;55784;50.734;7.086;2023-10-13T06:34:38;18.60;96.50
68801;SHT31;55784;50.734;7.086;2023-10-13T06:37:13;18.63;95.95
68801;SHT31;55784;50.734;7.086;2023-10-13T06:39:49;18.70;96.08
68801;SHT31;55784;50.734;7.086;2023-10-13T06:42:14;18.76;95.89
68801;SHT31;55784;50.734;7.086;2023-10-13T06:44:41;18.86;95.55
68801;SHT31;55784;50.734;7.086;2023-10-13T06:47:10;18.92;95.25
68801;SHT31;55784;50.734;7.086;2023-10-13T06:49:36;18.97;94.76
68801;SHT31;55784;50.734;7.086;2023-10-13T06:52:07;19.03;94.69
68801;SHT31;55784;50.734;7.086;2023-10-13T06:54:32;19.09;94.71
68801;SHT31;55784;50.734;7.086;2023-10-13T06:57:01;19.10;94.40
68801;SHT31;55784;50.734;7.086;2023-10-13T06:59:29;19.14;94.14
68801;SHT31;55784;50.734;7.086;2023-10-13T07:02:00;19.19;93.93
68801;SHT31;55784;50.734;7.086;2023-10-13T07:04:30;19.24;93.68
68801;SHT31;55784;50.734;7.086;2023-10-13T07:06:56;19.24;93.71
68801;SHT31;55784;50.734;7.086;2023-10-13T07:09:21;19.32;93.33
68801;SHT31;55784;50.734;7.086;2023-10-13T07:11:59;19.40;93.09
68801;SHT31;55784;50.734;7.086;2023-10-13T07:14:50;19.46;93.07
68801;SHT31;55784;50.734;7.086;2023-10-13T07:17:20;19.50;92.66
68801;SHT31;55784;50.734;7.086;2023-10-13T07:19:55;19.54;92.29
68801;SHT31;55784;50.734;7.086;2023-10-13T07:22:39;19.62;92.06
68801;SHT31;55784;50.734;7.086;2023-10-13T07:25:05;19.74;91.35
68801;SHT31;55784;50.734;7.086;2023-10-13T07:27:34;19.85;91.31
68801;SHT31;55784;50.734;7.086;2023-10-13T07:30:00;19.93;90.79
68801;SHT31;55784;50.734;7.086;2023-10-13T07:32:38;20.05;90.53
68801;SHT31;55784;50.734;7.086;2023-10-13T07:35:11;20.13;89.91
68801;SHT31;55784;50.734;7.086;2023-10-13T07:37:37;20.22;89.06
68801;SHT31;55784;50.734;7.086;2023-10-13T07:40:04;20.33;89.12
68801;SHT31;55784;50.734;7.086;2023-10-13T07:42:46;20.35;88.63
68801;SHT31;55784;50.734;7.086;2023-10-13T07:45:12;20.39;88.21
68801;SHT31;55784;50.734;7.086;2023-10-13T07:47:37;20.40;88.25
68801;SHT31;55784;50.734;7.086;2023-10-13T07:50:05;20.42;87.87
68801;SHT31;55784;50.734;7.086;2023-10-13T07:52:32;20.40;87.28
68801;SHT31;55784;50.734;7.086;2023-10-13T07:55:19;20.39;86.94
68801;SHT31;55784;50.734;7.086;2023-10-13T07:57:46;20.50;86.94
68801;SHT31;55784;50.734;7.086;2023-10-13T08:00:25;20.50;86.27
68801;SHT31;55784;50.734;7.086;2023-10-13T08:03:08;20.59;86.68
68801;SHT31;55784;50.734;7.086;2023-10-13T08:05:40;20.64;85.79
68801;SHT31;55784;50.734;7.086;2023-10-13T08:08:21;20.74;85.46
68801;SHT31;55784;50.734;7.086;2023-10-13T08:10:47;20.74;84.69
68801;SHT31;55784;50.734;7.086;2023-10-13T08:13:12;20.77;84.24
68801;SHT31;55784;50.734;7.086;2023-10-13T08:15:41;20.80;84.09
68801;SHT31;55784;50.734;7.086;2023-10-13T08:18:13;20.86;83.67
68801;SHT31;55784;50.734;7.086;2023-10-13T08:21:06;20.83;83.13
68801;SHT31;55784;50.734;7.086;2023-10-13T08:23:32;20.80;82.93
68801;SHT31;55784;50.734;7.086;2023-10-13T08:26:24;20.72;82.45
68801;SHT31;55784;50.734;7.086;2023-10-13T08:29:04;20.66;83.33
68801;SHT31;55784;50.734;7.086;2023-10-13T08:31:49;20.64;82.40
68801;SHT31;55784;50.734;7.086;2023-10-13T08:34:33;20.67;82.27
68801;SHT31;55784;50.734;7.086;2023-10-13T08:37:08;20.64;81.66
68801;SHT31;55784;50.734;7.086;2023-10-13T08:39:49;20.64;81.18
68801;SHT31;55784;50.734;7.086;2023-10-13T08:42:32;20.76;81.20
68801;SHT31;55784;50.734;7.086;2023-10-13T08:45:07;20.73;80.83
68801;SHT31;55784;50.734;7.086;2023-10-13T08:47:51;20.79;80.58
68801;SHT31;55784;50.734;7.086;2023-10-13T08:50:33;20.74;80.17
68801;SHT31;55784;50.734;7.086;2023-10-13T08:53:27;20.76;80.24
68801;SHT31;55784;50.734;7.086;2023-10-13T08:56:04;20.81;80.49
68801;SHT31;55784;50.734;7.086;2023-10-13T08:58:33;20.84;79.67
68801;SHT31;55784;50.734;7.086;2023-10-13T09:01:28;20.88;79.62
68801;SHT31;55784;50.734;7.086;2023-10-13T09:09:47;21.39;77.54
68801;SHT31;55784;50.734;7.086;2023-10-13T09:14:54;21.58;77.88
68801;SHT31;55784;50.734;7.086;2023-10-13T09:17:27;21.65;77.51
68801;SHT31;55784;50.734;7.086;2023-10-13T09:20:07;21.83;76.85
68801;SHT31;55784;50.734;7.086;2023-10-13T09:23:15;22.09;76.32
68801;SHT31;55784;50.734;7.086;2023-10-13T09:25:50;22.17;75.96
68801;SHT31;55784;50.734;7.086;2023-10-13T09:28:23;22.21;75.84
68801;SHT31;55784;50.734;7.086;2023-10-13T09:30:51;22.26;76.17
68801;SHT31;55784;50.734;7.086;2023-10-13T09:33:29;22.36;75.47
68801;SHT31;55784;50.734;7.086;2023-10-13T09:36:15;22.54;75.41
68801;SHT31;55784;50.734;7.086;2023-10-13T09:38:42;22.60;74.50
68801;SHT31;55784;50.734;7.086;2023-10-13T09:41:14;22.71;73.12
68801;SHT31;55784;50.734;7.086;2023-10-13T09:43:52;22.73;73.13
68801;SHT31;55784;50.734;7.086;2023-10-13T09:46:21;22.83;73.21
68801;SHT31;55784;50.734;7.086;2023-10-13T09:48:50;22.88;71.82
68801;SHT31;55784;50.734;7.086;2023-10-13T09:51:30;23.07;71.83
68801;SHT31;55784;50.734;7.086;2023-10-13T09:56:48;23.14;71.11
68801;SHT31;55784;50.734;7.086;2023-10-13T09:59:22;23.24;70.81
68801;SHT31;55784;50.734;7.086;2023-10-13T10:01:51;23.31;71.12
68801;SHT31;55784;50.734;7.086;2023-10-13T10:04:18;23.35;71.03
68801;SHT31;55784;50.734;7.086;2023-10-13T10:06:54;23.37;71.02
68801;SHT31;55784;50.734;7.086;2023-10-13T10:09:27;23.42;70.31
68801;SHT31;55784;50.734;7.086;2023-10-13T10:12:27;23.58;69.66
68801;SHT31;55784;50.734;7.086;2023-10-13T10:18:01;23.93;68.62
68801;SHT31;55784;50.734;7.086;2023-10-13T10:20:37;23.79;68.68
68801;SHT31;55784;50.734;7.086;2023-10-13T10:23:28;23.93;68.60
68801;SHT31;55784;50.734;7.086;2023-10-13T10:26:22;23.95;68.37
68801;SHT31;55784;50.734;7.086;2023-10-13T10:28:48;23.82;68.29
68801;SHT31;55784;50.734;7.086;2023-10-13T10:31:19;23.77;68.74
68801;SHT31;55784;50.734;7.086;2023-10-13T10:34:30;23.67;68.91
68801;SHT31;55784;50.734;7.086;2023-10-13T10:37:01;23.79;68.66
68801;SHT31;55784;50.734;7.086;2023-10-13T10:39:35;23.77;68.66
68801;SHT31;55784;50.734;7.086;2023-10-13T10:42:22;23.85;68.85
68801;SHT31;55784;50.734;7.086;2023-10-13T10:44:49;23.99;68.39
68801;SHT31;55784;50.734;7.086;2023-10-13T10:47:20;24.09;67.86
68801;SHT31;55784;50.734;7.086;2023-10-13T10:50:02;24.14;67.83
68801;SHT31;55784;50.734;7.086;2023-10-13T10:52:45;24.28;67.48
68801;SHT31;55784;50.734;7.086;2023-10-13T10:55:12;24.31;67.35
68801;SHT31;55784;50.734;7.086;2023-10-13T10:57:42;24.47;67.07
68801;SHT31;55784;50.734;7.086;2023-10-13T11:00:20;24.60;66.77
68801;SHT31;55784;50.734;7.086;2023-10-13T11:02:56;24.79;66.48
68801;SHT31;55784;50.734;7.086;2023-10-13T11:05:22;24.89;65.83
68801;SHT31;55784;50.734;7.086;2023-10-13T11:07:49;25.05;65.48
68801;SHT31;55784;50.734;7.086;2023-10-13T11:10:16;25.11;65.41
68801;SHT31;55784;50.734;7.086;2023-10-13T11:12:58;25.11;65.15
68801;SHT31;55784;50.734;7.086;2023-10-13T11:15:46;25.14;65.14
68801;SHT31;55784;50.734;7.086;2023-10-13T11:18:12;25.20;64.79
68801;SHT31;55784;50.734;7.086;2023-10-13T11:20:42;25.19;64.61
68801;SHT31;55784;50.734;7.086;2023-10-13T11:23:12;25.23;64.48
68801;SHT31;55784;50.734;7.086;2023-10-13T11:25:37;25.28;64.33
68801;SHT31;55784;50.734;7.086;2023-10-13T11:28:29;25.20;64.47
68801;SHT31;55784;50.734;7.086;2023-10-13T11:30:58;25.19;64.36
68801;SHT31;55784;50.734;7.086;2023-10-13T11:33:27;25.16;64.15
68801;SHT31;55784;50.734;7.086;2023-10-13T11:35:57;25.05;64.45
68801;SHT31;55784;50.734;7.086;2023-10-13T11:38:27;25.15;63.77
68801;SHT31;55784;50.734;7.086;2023-10-13T11:41:02;25.15;63.72
68801;SHT31;55784;50.734;7.086;2023-10-13T11:46:22;24.99;63.54
68801;SHT31;55784;50.734;7.086;2023-10-13T11:49:07;25.05;63.16
68801;SHT31;55784;50.734;7.086;2023-10-13T11:51:46;25.07;62.95
68801;SHT31;55784;50.734;7.086;2023-10-13T11:54:19;25.04;63.43
68801;SHT31;55784;50.734;7.086;2023-10-13T11:56:45;25.12;63.38
68801;SHT31;55784;50.734;7.086;2023-10-13T11:59:11;25.15;63.39
68801;SHT31;55784;50.734;7.086;2023-10-13T12:01:46;25.15;63.16
68801;SHT31;55784;50.734;7.086;2023-10-13T12:04:30;25.12;62.74
68801;SHT31;55784;50.734;7.086;2023-10-13T12:07:16;25.11;62.11
68801;SHT31;55784;50.734;7.086;2023-10-13T12:09:43;25.15;61.49
68801;SHT31;55784;50.734;7.086;2023-10-13T12:12:26;25.16;61.63
68801;SHT31;55784;50.734;7.086;2023-10-13T12:14:52;25.26;61.64
68801;SHT31;55784;50.734;7.086;2023-10-13T15:19:14;23.67;64.57
68801;SHT31;55784;50.734;7.086;2023-10-13T15:21:51;23.61;64.92
68801;SHT31;55784;50.734;7.086;2023-10-13T15:24:45;23.58;65.23
68801;SHT31;55784;50.734;7.086;2023-10-13T15:27:47;23.52;64.71
68801;SHT31;55784;50.734;7.086;2023-10-13T15:30:47;23.49;64.62
68801;SHT31;55784;50.734;7.086;2023-10-13T15:40:49;23.19;65.15
68801;SHT31;55784;50.734;7.086;2023-10-13T15:56:15;23.02;65.99
68801;SHT31;55784;50.734;7.086;2023-10-13T15:58:45;23.00;66.36
68801;SHT31;55784;50.734;7.086;2023-10-13T16:01:32;22.95;66.10
68801;SHT31;55784;50.734;7.086;2023-10-13T16:04:01;22.91;66.53
68801;SHT31;55784;50.734;7.086;2023-10-13T16:07:08;22.87;66.82
68801;SHT31;55784;50.734;7.086;2023-10-13T16:10:02;22.83;67.10
68801;SHT31;55784;50.734;7.086;2023-10-13T16:19:19;22.68;67.95
68801;SHT31;55784;50.734;7.086;2023-10-13T16:21:52;22.63;68.12
68801;SHT31;55784;50.734;7.086;2023-10-13T16:24:18;22.61;68.29
68801;SHT31;55784;50.734;7.086;2023-10-13T16:26:48;22.56;68.79
68801;SHT31;55784;50.734;7.086;2023-10-13T16:29:37;22.49;68.78
68801;SHT31;55784;50.734;7.086;2023-10-13T16:32:36;22.43;69.35
68801;SHT31;55784;50.734;7.086;2023-10-13T16:38:27;22.28;69.45
68801;SHT31;55784;50.734;7.086;2023-10-13T16:45:14;22.17;70.04
68801;SHT31;55784;50.734;7.086;2023-10-13T16:48:19;22.16;70.07
68801;SHT31;55784;50.734;7.086;2023-10-13T17:21:19;22.00;70.45
68801;SHT31;55784;50.734;7.086;2023-10-13T17:26:59;21.93;70.68
68801;SHT31;55784;50.734;7.086;2023-10-13T19:16:26;21.85;70.19
68801;SHT31;55784;50.734;7.086;2023-10-13T19:18:52;21.86;70.05
68801;SHT31;55784;50.734;7.086;2023-10-13T19:21:21;21.81;70.24
68801;SHT31;55784;50.734;7.086;2023-10-13T19:23:49;21.79;70.30
68801;SHT31;55784;50.734;7.086;2023-10-13T19:26:22;21.79;70.03
68801;SHT31;55784;50.734;7.086;2023-10-13T19:28:50;21.78;69.74
68801;SHT31;55784;50.734;7.086;2023-10-13T19:31:16;21.77;69.52
68801;SHT31;55784;50.734;7.086;2023-10-13T19:33:45;21.81;69.28
68801;SHT31;55784;50.734;7.086;2023-10-13T19:36:12;21.86;68.94
68801;SHT31;55784;50.734;7.086;2023-10-13T19:38:41;21.82;68.72
68801;SHT31;55784;50.734;7.086;2023-10-13T19:41:13;21.85;68.35
68801;SHT31;55784;50.734;7.086;2023-10-13T19:43:46;21.89;68.04
68801;SHT31;55784;50.734;7.086;2023-10-13T19:46:12;21.89;68.17
68801;SHT31;55784;50.734;7.086;2023-10-13T19:48:39;21.90;68.09
68801;SHT31;55784;50.734;7.086;2023-10-13T19:51:05;21.93;67.94
68801;SHT31;55784;50.734;7.086;2023-10-13T19:53:36;21.95;68.00
68801;SHT31;55784;50.734;7.086;2023-10-13T19:56:01;21.99;67.53
68801;SHT31;55784;50.734;7.086;2023-10-13T19:58:30;22.00;67.22
68801;SHT31;55784;50.734;7.086;2023-10-13T20:00:55;22.06;66.63
68801;SHT31;55784;50.734;7.086;2023-10-13T20:03:21;22.12;66.48
68801;SHT31;55784;50.734;7.086;2023-10-13T20:05:50;22.14;66.41
68801;SHT31;55784;50.734;7.086;2023-10-13T20:08:16;22.20;65.59
68801;SHT31;55784;50.734;7.086;2023-10-13T20:10:41;22.28;65.50
68801;SHT31;55784;50.734;7.086;2023-10-13T20:13:07;22.35;64.77
68801;SHT31;55784;50.734;7.086;2023-10-13T20:15:32;22.36;64.85
68801;SHT31;55784;50.734;7.086;2023-10-13T20:18:01;22.40;64.49
68801;SHT31;55784;50.734;7.086;2023-10-13T20:20:36;22.39;64.19
68801;SHT31;55784;50.734;7.086;2023-10-13T20:23:08;22.40;64.72
68801;SHT31;55784;50.734;7.086;2023-10-13T20:25:38;22.40;64.69
68801;SHT31;55784;50.734;7.086;2023-10-13T20:28:04;22.41;64.47
68801;SHT31;55784;50.734;7.086;2023-10-13T20:30:32;22.36;64.63
68801;SHT31;55784;50.734;7.086;2023-10-13T20:32:58;22.37;64.68
68801;SHT31;55784;50.734;7.086;2023-10-13T20:35:24;22.37;64.93
68801;SHT31;55784;50.734;7.086;2023-10-13T20:37:49;22.36;65.06
68801;SHT31;55784;50.734;7.086;2023-10-13T20:40:15;22.33;65.31
68801;SHT31;55784;50.734;7.086;2023-10-13T20:42:49;22.24;65.73
68801;SHT31;55784;50.734;7.086;2023-10-13T20:45:17;22.23;65.74
68801;SHT31;55784;50.734;7.086;2023-10-13T20:47:51;22.36;65.60
68801;SHT31;55784;50.734;7.086;2023-10-13T20:50:21;22.30;65.84
68801;SHT31;55784;50.734;7.086;2023-10-13T20:52:47;22.32;65.77
68801;SHT31;55784;50.734;7.086;2023-10-13T20:55:19;22.37;65.84
68801;SHT31;55784;50.734;7.086;2023-10-13T20:57:45;22.35;65.99
68801;SHT31;55784;50.734;7.086;2023-10-13T21:00:15;22.33;66.24
68801;SHT31;55784;50.734;7.086;2023-10-13T21:02:51;22.32;66.56
68801;SHT31;55784;50.734;7.086;2023-10-13T21:05:17;22.28;66.80
68801;SHT31;55784;50.734;7.086;2023-10-13T21:07:49;22.30;66.85
68801;SHT31;55784;50.734;7.086;2023-10-13T21:10:15;22.29;67.08
68801;SHT31;55784;50.734;7.086;2023-10-13T21:12:41;22.19;67.35
68801;SHT31;55784;50.734;7.086;2023-10-13T21:15:11;22.12;67.82
68801;SHT31;55784;50.734;7.086;2023-10-13T21:17:46;22.12;67.98
68801;SHT31;55784;50.734;7.086;2023-10-13T21:20:13;22.09;68.23
68801;SHT31;55784;50.734;7.086;2023-10-13T21:22:46;22.09;68.53
68801;SHT31;55784;50.734;7.086;2023-10-13T21:25:13;22.09;68.63
68801;SHT31;55784;50.734;7.086;2023-10-13T21:27:48;22.06;69.54
68801;SHT31;55784;50.734;7.086;2023-10-13T21:30:15;22.05;70.08
68801;SHT31;55784;50.734;7.086;2023-10-13T21:32:42;22.00;70.64
68801;SHT31;55784;50.734;7.086;2023-10-13T21:35:07;21.92;70.70
68801;SHT31;55784;50.734;7.086;2023-10-13T21:37:33;21.92;70.92
68801;SHT31;55784;50.734;7.086;2023-10-13T21:39:58;21.81;71.11
68801;SHT31;55784;50.734;7.086;2023-10-13T21:42:24;21.78;71.57
68801;SHT31;55784;50.734;7.086;2023-10-13T21:44:49;21.75;71.81
68801;SHT31;55784;50.734;7.086;2023-10-13T21:47:21;21.69;72.50
68801;SHT31;55784;50.734;7.086;2023-10-13T21:49:47;21.63;73.08
68801;SHT31;55784;50.734;7.086;2023-10-13T21:52:12;21.55;74.23
68801;SHT31;55784;50.734;7.086;2023-10-13T21:54:38;21.44;75.05
68801;SHT31;55784;50.734;7.086;2023-10-13T21:57:05;21.37;76.45
68801;SHT31;55784;50.734;7.086;2023-10-13T21:59:30;21.27;76.48
68801;SHT31;55784;50.734;7.086;2023-10-13T22:01:58;21.11;77.19
68801;SHT31;55784;50.734;7.086;2023-10-13T22:04:23;21.06;77.81
68801;SHT31;55784;50.734;7.086;2023-10-13T22:06:55;20.90;78.82
68801;SHT31;55784;50.734;7.086;2023-10-13T22:09:27;20.81;79.42
68801;SHT31;55784;50.734;7.086;2023-10-13T22:11:52;20.70;79.96
68801;SHT31;55784;50.734;7.086;2023-10-13T22:14:18;20.67;79.60
68801;SHT31;55784;50.734;7.086;2023-10-13T22:16:47;20.60;79.92
68801;SHT31;55784;50.734;7.086;2023-10-13T22:19:13;20.63;79.86
68801;SHT31;55784;50.734;7.086;2023-10-13T22:21:38;20.57;80.18
68801;SHT31;55784;50.734;7.086;2023-10-13T22:24:06;20.56;80.07
68801;SHT31;55784;50.734;7.086;2023-10-13T22:26:36;20.53;79.80
68801;SHT31;55784;50.734;7.086;2023-10-13T22:29:01;20.44;80.53